createdAt,value
2018-10-09T00:02:12.683Z,95486.20
2018-10-09T00:04:41.562Z,95485.92
2018-10-09T00:07:10.750Z,95489.71
2018-10-09T00:09:39.449Z,95485.52
2018-10-09T00:12:08.383Z,95485.94
2018-10-09T00:14:37.579Z,95479.66
2018-10-09T00:17:06.966Z,95480.84
2018-10-09T00:19:36.395Z,95482.33
2018-10-09T00:22:05.707Z,95482.50
2018-10-09T00:24:34.633Z,95489.01
2018-10-09T00:27:03.563Z,95490.05
2018-10-09T00:29:32.670Z,95485.46
2018-10-09T00:32:01.633Z,95489.47
2018-10-09T00:34:30.253Z,95483.68
2018-10-09T00:36:59.744Z,95487.25
2018-10-09T00:39:28.746Z,95492.27
2018-10-09T00:41:57.754Z,95489.79
2018-10-09T00:44:27.109Z,95486.17
2018-10-09T00:46:55.997Z,95481.73
2018-10-09T00:49:25.319Z,95484.36
2018-10-09T00:51:54.592Z,95485.02
2018-10-09T00:54:23.698Z,95490.38
2018-10-09T00:56:53.487Z,95484.09
2018-10-09T00:59:22.874Z,95495.17
2018-10-09T01:01:52.421Z,95493.58
2018-10-09T01:04:21.247Z,95494.00
2018-10-09T01:06:50.255Z,95489.13
2018-10-09T01:09:19.239Z,95492.20
2018-10-09T01:11:48.321Z,95485.38
2018-10-09T01:14:17.507Z,95482.93
2018-10-09T01:16:46.499Z,95481.69
2018-10-09T01:19:16.081Z,95477.08
2018-10-09T01:21:45.408Z,95485.12
2018-10-09T01:24:14.186Z,95484.48
2018-10-09T01:26:43.080Z,95491.14
2018-10-09T01:29:14.838Z,95495.55
2018-10-09T01:31:43.846Z,95487.92
2018-10-09T01:34:12.828Z,95492.89
2018-10-09T01:36:42.286Z,95490.83
2018-10-09T01:39:11.758Z,95489.46
2018-10-09T01:41:41.440Z,95490.36
2018-10-09T01:44:10.624Z,95491.64
2018-10-09T01:46:39.552Z,95498.50
2018-10-09T01:49:08.921Z,95490.05
2018-10-09T01:51:38.390Z,95486.92
2018-10-09T01:54:07.734Z,95491.72
2018-10-09T01:56:37.151Z,95490.13
2018-10-09T01:59:06.602Z,95485.20
2018-10-09T02:01:35.466Z,95490.08
2018-10-09T02:04:04.360Z,95500.34
2018-10-09T02:06:33.545Z,95503.55
2018-10-09T02:09:02.644Z,95494.08
2018-10-09T02:11:32.039Z,95500.93
2018-10-09T02:14:01.292Z,95494.94
2018-10-09T02:16:30.150Z,95496.53
2018-10-09T02:18:59.647Z,95500.34
2018-10-09T02:21:28.678Z,95494.91
2018-10-09T02:23:57.539Z,95489.87
2018-10-09T02:26:26.261Z,95495.11
2018-10-09T02:28:56.060Z,95487.72
2018-10-09T02:31:24.855Z,95489.87
2018-10-09T02:33:53.915Z,95492.51
2018-10-09T02:36:23.030Z,95495.00
2018-10-09T02:38:52.206Z,95498.73
2018-10-09T02:41:21.152Z,95503.11
2018-10-09T02:43:50.830Z,95499.71
2018-10-09T02:46:19.906Z,95499.40
2018-10-09T02:48:48.810Z,95505.59
2018-10-09T02:51:18.113Z,95497.26
2018-10-09T02:53:47.278Z,95503.93
2018-10-09T02:56:16.303Z,95502.79
2018-10-09T02:58:45.605Z,95506.73
2018-10-09T03:01:14.347Z,95507.73
2018-10-09T03:03:44.091Z,95501.91
2018-10-09T03:06:13.092Z,95502.73
2018-10-09T03:08:42.076Z,95501.34
2018-10-09T03:11:11.600Z,95498.85
2018-10-09T03:13:40.473Z,95501.22
2018-10-09T03:16:09.495Z,95505.33
2018-10-09T03:18:38.545Z,95507.47
2018-10-09T03:21:07.751Z,95513.66
2018-10-09T03:23:36.975Z,95508.89
2018-10-09T03:26:06.247Z,95512.05
2018-10-09T03:28:35.140Z,95520.75
2018-10-09T03:31:04.301Z,95510.48
2018-10-09T03:33:33.642Z,95516.86
2018-10-09T03:36:02.750Z,95515.89
2018-10-09T03:38:31.436Z,95519.39
2018-10-09T03:41:00.998Z,95515.50
2018-10-09T03:43:29.642Z,95526.55
2018-10-09T03:45:58.550Z,95519.50
2018-10-09T03:48:27.867Z,95517.08
2018-10-09T03:50:56.735Z,95524.42
2018-10-09T03:53:25.728Z,95522.28
2018-10-09T03:55:54.975Z,95518.00
2018-10-09T03:58:24.099Z,95525.23
2018-10-09T04:00:53.021Z,95527.26
2018-10-09T04:03:22.143Z,95527.69
2018-10-09T04:05:50.876Z,95533.33
2018-10-09T04:08:20.101Z,95531.61
2018-10-09T04:10:49.223Z,95534.87
2018-10-09T04:13:18.158Z,95535.61
2018-10-09T04:15:47.283Z,95535.75
2018-10-09T04:18:16.237Z,95529.44
2018-10-09T04:20:45.281Z,95525.06
2018-10-09T04:23:14.986Z,95528.08
2018-10-09T04:25:44.367Z,95524.67
2018-10-09T04:28:13.196Z,95532.11
2018-10-09T04:30:42.384Z,95534.34
2018-10-09T04:33:12.254Z,95528.11
2018-10-09T04:35:41.299Z,95525.30
2018-10-09T04:38:10.295Z,95530.25
2018-10-09T04:40:39.636Z,95531.40
2018-10-09T04:43:09.309Z,95537.60
2018-10-09T04:45:38.557Z,95533.39
2018-10-09T04:48:07.922Z,95534.41
2018-10-09T04:50:37.110Z,95537.42
2018-10-09T04:53:06.835Z,95542.72
2018-10-09T04:55:36.059Z,95542.76
2018-10-09T04:58:05.762Z,95542.67
2018-10-09T05:00:35.450Z,95544.59
2018-10-09T05:03:04.540Z,95551.84
2018-10-09T05:05:33.632Z,95553.64
2018-10-09T05:08:03.063Z,95559.14
2018-10-09T05:10:32.132Z,95565.52
2018-10-09T05:13:01.033Z,95566.14
2018-10-09T05:15:30.651Z,95567.13
2018-10-09T05:17:59.858Z,95561.00
2018-10-09T05:20:29.036Z,95567.58
2018-10-09T05:22:58.239Z,95557.76
2018-10-09T05:25:27.311Z,95575.25
2018-10-09T05:27:56.106Z,95574.59
2018-10-09T05:30:25.474Z,95573.91
2018-10-09T05:32:54.702Z,95579.31
2018-10-09T05:35:23.778Z,95573.65
2018-10-09T05:37:54.097Z,95575.83
2018-10-09T05:40:24.974Z,95576.23
2018-10-09T05:42:54.855Z,95576.48
2018-10-09T05:45:28.107Z,95586.61
2018-10-09T05:47:57.309Z,95590.54
2018-10-09T05:50:26.603Z,95591.31
2018-10-09T05:52:55.899Z,95596.77
2018-10-09T05:55:25.196Z,95593.90
2018-10-09T05:57:54.301Z,95584.41
2018-10-09T06:00:23.491Z,95603.69
2018-10-09T06:02:52.810Z,95602.61
2018-10-09T06:05:21.946Z,95603.25
2018-10-09T06:07:51.211Z,95600.25
2018-10-09T06:10:20.680Z,95600.22
2018-10-09T06:12:49.697Z,95603.28
2018-10-09T06:15:18.948Z,95599.98
2018-10-09T06:17:48.104Z,95606.78
2018-10-09T06:20:17.199Z,95601.77
2018-10-09T06:22:46.499Z,95606.89
2018-10-09T06:25:15.916Z,95601.70
2018-10-09T06:27:45.107Z,95608.94
2018-10-09T06:30:14.360Z,95605.05
2018-10-09T06:32:43.954Z,95609.11
2018-10-09T06:35:13.046Z,95611.17
2018-10-09T06:37:42.110Z,95613.80
2018-10-09T06:40:11.653Z,95618.38
2018-10-09T06:42:40.679Z,95617.90
2018-10-09T06:45:09.790Z,95622.27
2018-10-09T06:47:39.512Z,95627.28
2018-10-09T06:50:08.675Z,95624.41
2018-10-09T06:52:37.878Z,95626.53
2018-10-09T06:55:07.301Z,95626.63
2018-10-09T06:57:37.018Z,95630.13
2018-10-09T07:00:06.343Z,95629.72
2018-10-09T07:02:35.734Z,95627.86
2018-10-09T07:05:04.836Z,95627.55
2018-10-09T07:07:34.335Z,95627.80
2018-10-09T07:10:03.968Z,95624.73
2018-10-09T07:12:33.091Z,95629.93
2018-10-09T07:15:02.350Z,95628.12
2018-10-09T07:17:31.460Z,95623.05
2018-10-09T07:20:00.735Z,95625.25
2018-10-09T07:22:30.055Z,95625.56
2018-10-09T07:24:59.569Z,95628.22
2018-10-09T07:27:28.555Z,95623.91
2018-10-09T07:29:57.727Z,95619.29
2018-10-09T07:32:26.997Z,95623.41
2018-10-09T07:34:56.066Z,95622.05
2018-10-09T07:37:25.208Z,95631.73
2018-10-09T07:39:54.720Z,95628.85
2018-10-09T07:42:23.815Z,95635.55
2018-10-09T07:44:52.839Z,95623.92
2018-10-09T07:47:22.317Z,95628.72
2018-10-09T07:49:51.410Z,95626.55
2018-10-09T07:52:20.729Z,95627.49
2018-10-09T07:54:49.882Z,95633.84
2018-10-09T07:57:18.942Z,95631.93
2018-10-09T07:59:48.122Z,95632.25
2018-10-09T08:02:17.607Z,95632.53
2018-10-09T08:04:46.850Z,95634.91
2018-10-09T08:07:15.939Z,95636.02
2018-10-09T08:09:45.445Z,95634.13
2018-10-09T08:12:14.593Z,95626.62
2018-10-09T08:14:44.766Z,95626.47
2018-10-09T08:17:14.142Z,95631.63
2018-10-09T08:19:43.188Z,95632.37
2018-10-09T08:22:12.372Z,95634.97
2018-10-09T08:24:41.704Z,95633.52
2018-10-09T08:27:10.974Z,95635.22
2018-10-09T08:29:40.379Z,95628.89
2018-10-09T08:32:09.945Z,95633.13
2018-10-09T08:34:39.095Z,95626.87
2018-10-09T08:37:08.167Z,95621.59
2018-10-09T08:39:37.586Z,95618.77
2018-10-09T08:42:06.828Z,95631.74
2018-10-09T08:44:36.067Z,95627.66
2018-10-09T08:47:05.507Z,95629.20
2018-10-09T08:49:34.570Z,95641.13
2018-10-09T08:52:03.739Z,95634.81
2018-10-09T08:54:33.117Z,95633.81
2018-10-09T08:57:02.360Z,95639.31
2018-10-09T08:59:31.478Z,95635.55
2018-10-09T09:02:00.698Z,95636.98
2018-10-09T09:04:29.782Z,95648.31
2018-10-09T09:06:58.875Z,95644.84
2018-10-09T09:09:28.525Z,95635.72
2018-10-09T09:11:57.791Z,95638.78
2018-10-09T09:14:27.024Z,95632.12
2018-10-09T09:16:56.403Z,95641.23
2018-10-09T09:19:25.693Z,95637.88
2018-10-09T09:21:54.725Z,95640.47
2018-10-09T09:24:23.880Z,95639.36
2018-10-09T09:26:53.085Z,95642.86
2018-10-09T09:29:22.225Z,95640.78
2018-10-09T09:31:51.411Z,95637.76
2018-10-09T09:34:20.684Z,95635.53
2018-10-09T09:36:50.069Z,95643.73
2018-10-09T09:39:19.543Z,95634.23
2018-10-09T09:41:48.622Z,95627.55
2018-10-09T09:44:17.755Z,95641.86
2018-10-09T09:46:47.730Z,95638.77
2018-10-09T09:49:16.869Z,95637.34
2018-10-09T09:51:45.994Z,95640.99
2018-10-09T09:54:15.341Z,95640.05
2018-10-09T09:56:44.478Z,95629.59
2018-10-09T09:59:13.731Z,95619.89
2018-10-09T10:01:43.940Z,95626.08
2018-10-09T10:04:13.923Z,95622.63
2018-10-09T10:06:43.243Z,95620.41
2018-10-09T10:09:12.909Z,95605.10
2018-10-09T10:11:42.967Z,95619.26
2018-10-09T10:14:12.218Z,95615.98
2018-10-09T10:16:41.576Z,95613.69
2018-10-09T10:19:10.735Z,95620.48
2018-10-09T10:21:39.955Z,95605.21
2018-10-09T10:24:09.403Z,95604.56
2018-10-09T10:26:38.675Z,95611.20
2018-10-09T10:29:08.523Z,95608.55
2018-10-09T10:31:37.603Z,95612.86
2018-10-09T10:34:06.878Z,95607.77
2018-10-09T10:36:36.081Z,95610.17
2018-10-09T10:39:07.740Z,95620.67
2018-10-09T10:41:36.928Z,95605.50
2018-10-09T10:44:06.087Z,95594.64
2018-10-09T10:46:40.200Z,95596.02
2018-10-09T10:49:13.854Z,95593.26
2018-10-09T10:51:43.155Z,95600.20
2018-10-09T10:54:12.327Z,95586.42
2018-10-09T10:56:41.356Z,95591.12
2018-10-09T10:59:10.763Z,95602.73
2018-10-09T11:01:39.809Z,95582.50
2018-10-09T11:04:08.844Z,95587.06
2018-10-09T11:06:38.167Z,95596.95
2018-10-09T11:09:09.762Z,95594.78
2018-10-09T11:11:39.102Z,95587.41
2018-10-09T11:14:08.371Z,95585.38
2018-10-09T11:16:37.443Z,95594.11
2018-10-09T11:19:07.134Z,95578.33
2018-10-09T11:21:36.910Z,95577.56
2018-10-09T11:24:06.255Z,95577.58
2018-10-09T11:26:36.708Z,95576.06
2018-10-09T11:29:05.947Z,95575.05
2018-10-09T11:31:35.013Z,95586.81
2018-10-09T11:34:04.440Z,95579.59
2018-10-09T11:36:33.761Z,95576.33
2018-10-09T11:39:02.973Z,95581.63
2018-10-09T11:41:32.291Z,95592.23
2018-10-09T11:44:01.287Z,95592.62
2018-10-09T11:46:30.456Z,95602.72
2018-10-09T11:49:01.774Z,95588.95
2018-10-09T11:51:30.945Z,95587.05
2018-10-09T11:54:00.057Z,95578.34
2018-10-09T11:56:29.566Z,95585.16
2018-10-09T11:58:58.693Z,95574.92
2018-10-09T12:01:27.855Z,95591.22
2018-10-09T12:03:57.464Z,95586.27
2018-10-09T12:06:26.476Z,95576.55
2018-10-09T12:08:55.753Z,95573.91
2018-10-09T12:11:30.066Z,95572.52
2018-10-09T12:13:59.320Z,95589.30
2018-10-09T12:16:29.719Z,95562.98
2018-10-09T12:18:59.689Z,95562.77
2018-10-09T12:21:33.774Z,95577.06
2018-10-09T12:24:04.018Z,95580.59
2018-10-09T12:26:33.171Z,95577.41
2018-10-09T12:29:04.772Z,95563.63
2018-10-09T12:31:34.091Z,95576.17
2018-10-09T12:34:03.226Z,95566.94
2018-10-09T12:36:32.218Z,95573.15
2018-10-09T12:39:01.523Z,95576.56
2018-10-09T12:41:39.902Z,95582.88
2018-10-09T12:44:09.250Z,95582.13
2018-10-09T12:46:39.459Z,95586.42
2018-10-09T12:49:08.987Z,95589.33
2018-10-09T12:51:38.486Z,95576.17
2018-10-09T12:54:07.567Z,95569.73
2018-10-09T12:56:36.773Z,95573.41
2018-10-09T12:59:06.385Z,95576.70
2018-10-09T13:01:35.475Z,95575.92
2018-10-09T13:04:04.772Z,95572.00
2018-10-09T13:06:34.430Z,95575.67
2018-10-09T13:09:03.819Z,95562.78
2018-10-09T13:11:32.843Z,95573.52
2018-10-09T13:14:01.963Z,95576.70
2018-10-09T13:16:31.135Z,95566.80
2018-10-09T13:19:00.941Z,95564.42
2018-10-09T13:21:30.452Z,95544.44
2018-10-09T13:23:59.442Z,95553.66
2018-10-09T13:26:28.657Z,95558.60
2018-10-09T13:28:58.078Z,95566.03
2018-10-09T13:31:27.242Z,95566.44
2018-10-09T13:33:56.456Z,95556.45
2018-10-09T13:36:25.545Z,95562.50
2018-10-09T13:38:54.546Z,95562.78
2018-10-09T13:41:23.842Z,95554.03
2018-10-09T13:43:53.476Z,95557.94
2018-10-09T13:46:22.737Z,95547.95
2018-10-09T13:48:51.821Z,95551.50
2018-10-09T13:51:21.403Z,95559.59
2018-10-09T13:53:50.626Z,95557.17
2018-10-09T13:56:19.760Z,95556.27
2018-10-09T13:58:49.274Z,95550.96
2018-10-09T14:01:18.669Z,95553.11
2018-10-09T14:03:48.063Z,95553.22
2018-10-09T14:06:17.440Z,95557.28
2018-10-09T14:08:46.765Z,95549.80
2018-10-09T14:11:15.867Z,95545.78
2018-10-09T14:13:45.892Z,95544.25
2018-10-09T14:16:22.322Z,95550.22
2018-10-09T14:18:52.270Z,95554.50
2018-10-09T14:21:21.416Z,95552.45
2018-10-09T14:23:50.709Z,95551.34
2018-10-09T14:26:20.286Z,95554.62
2018-10-09T14:28:49.615Z,95551.11
2018-10-09T14:31:18.647Z,95551.72
2018-10-09T14:33:48.183Z,95560.69
2018-10-09T14:36:17.517Z,95558.13
2018-10-09T14:38:46.819Z,95574.02
2018-10-09T14:41:16.339Z,95569.71
2018-10-09T14:43:45.524Z,95564.02
2018-10-09T14:46:14.692Z,95564.27
2018-10-09T14:48:43.987Z,95563.50
2018-10-09T14:51:13.151Z,95570.58
2018-10-09T14:53:42.348Z,95572.45
2018-10-09T14:56:11.627Z,95559.56
2018-10-09T14:58:40.903Z,95563.31
2018-10-09T15:01:10.374Z,95560.75
2018-10-09T15:03:39.631Z,95562.12
2018-10-09T15:06:08.990Z,95564.87
2018-10-09T15:08:38.237Z,95556.86
2018-10-09T15:11:07.604Z,95565.52
2018-10-09T15:13:36.676Z,95564.95
2018-10-09T15:16:05.894Z,95560.62
2018-10-09T15:18:35.290Z,95563.64
2018-10-09T15:21:04.350Z,95564.30
2018-10-09T15:23:33.517Z,95567.94
2018-10-09T15:26:02.811Z,95573.04
2018-10-09T15:28:32.687Z,95571.11
2018-10-09T15:31:01.808Z,95573.09
2018-10-09T15:33:31.154Z,95573.33
2018-10-09T15:36:00.324Z,95566.70
2018-10-09T15:38:29.591Z,95579.35
2018-10-09T15:40:58.694Z,95582.63
2018-10-09T15:43:27.832Z,95574.22
2018-10-09T15:45:57.000Z,95584.37
2018-10-09T15:48:26.232Z,95586.45
2018-10-09T15:50:55.332Z,95585.28
2018-10-09T15:53:25.015Z,95586.56
2018-10-09T15:55:54.351Z,95589.63
2018-10-09T15:58:23.564Z,95595.86
2018-10-09T16:00:52.899Z,95604.84
2018-10-09T16:03:22.274Z,95599.80
2018-10-09T16:05:51.441Z,95596.41
2018-10-09T16:08:21.195Z,95604.47
2018-10-09T16:10:50.664Z,95605.41
2018-10-09T16:13:19.759Z,95603.63
2018-10-09T16:15:49.169Z,95607.72
2018-10-09T16:18:18.300Z,95596.20
2018-10-09T16:20:47.409Z,95609.59
2018-10-09T16:23:16.470Z,95619.05
2018-10-09T16:25:45.727Z,95609.44
2018-10-09T16:28:14.836Z,95613.03
2018-10-09T16:30:43.984Z,95622.58
2018-10-09T16:33:13.217Z,95626.52
2018-10-09T16:35:42.397Z,95620.63
2018-10-09T16:38:11.478Z,95629.55
2018-10-09T16:40:40.587Z,95629.66
2018-10-09T16:43:09.627Z,95622.94
2018-10-09T16:45:39.092Z,95631.38
2018-10-09T16:48:08.364Z,95635.86
2018-10-09T16:50:37.357Z,95636.61
2018-10-09T16:53:06.563Z,95642.16
2018-10-09T16:55:35.420Z,95641.89
2018-10-09T16:58:04.679Z,95635.48
2018-10-09T17:00:33.727Z,95645.09
2018-10-09T17:03:03.627Z,95648.28
2018-10-09T17:05:33.196Z,95655.86
2018-10-09T17:08:02.291Z,95651.78
2018-10-09T17:10:31.294Z,95648.52
2018-10-09T17:13:00.230Z,95656.02
2018-10-09T17:15:29.204Z,95653.78
2018-10-09T17:17:58.582Z,95659.73
2018-10-09T17:20:27.600Z,95656.13
2018-10-09T17:22:56.563Z,95661.73
2018-10-09T17:25:25.483Z,95660.86
2018-10-09T17:27:54.664Z,95667.12
2018-10-09T17:30:23.647Z,95665.58
2018-10-09T17:32:53.005Z,95666.39
2018-10-09T17:35:22.230Z,95664.69
2018-10-09T17:37:51.634Z,95665.92
2018-10-09T17:40:20.975Z,95666.34
2018-10-09T17:42:49.900Z,95669.45
2018-10-09T17:45:18.953Z,95667.53
2018-10-09T17:47:48.198Z,95668.80
2018-10-09T17:50:17.334Z,95675.95
2018-10-09T17:52:46.998Z,95678.31
2018-10-09T17:55:16.395Z,95680.77
2018-10-09T17:57:45.346Z,95685.25
2018-10-09T18:00:14.438Z,95689.25
2018-10-09T18:02:43.367Z,95691.91
2018-10-09T18:05:12.250Z,95681.91
2018-10-09T18:07:41.812Z,95693.11
2018-10-09T18:10:11.002Z,95699.25
2018-10-09T18:12:39.871Z,95696.77
2018-10-09T18:15:10.590Z,95700.51
2018-10-09T18:17:39.679Z,95706.22
2018-10-09T18:20:08.744Z,95709.16
2018-10-09T18:22:37.902Z,95711.36
2018-10-09T18:25:07.667Z,95712.60
2018-10-09T18:27:37.100Z,95714.00
2018-10-09T18:30:06.274Z,95701.30
2018-10-09T18:32:35.816Z,95711.06
2018-10-09T18:35:05.604Z,95707.87
2018-10-09T18:37:34.700Z,95711.88
2018-10-09T18:40:04.350Z,95721.12
2018-10-09T18:42:33.437Z,95718.73
2018-10-09T18:45:02.347Z,95718.65
2018-10-09T18:47:36.702Z,95722.84
2018-10-09T18:50:05.674Z,95725.19
2018-10-09T18:52:34.606Z,95724.91
2018-10-09T18:55:05.047Z,95730.45
2018-10-09T18:57:34.188Z,95737.06
2018-10-09T19:00:03.220Z,95730.50
2018-10-09T19:02:32.690Z,95737.26
2018-10-09T19:05:01.523Z,95735.41
2018-10-09T19:07:31.019Z,95736.78
2018-10-09T19:10:00.284Z,95735.08
2018-10-09T19:12:29.427Z,95733.41
2018-10-09T19:14:58.435Z,95734.94
2018-10-09T19:17:27.921Z,95737.85
2018-10-09T19:19:57.125Z,95736.16
2018-10-09T19:22:26.139Z,95738.02
2018-10-09T19:24:55.579Z,95727.14
2018-10-09T19:27:25.342Z,95740.44
2018-10-09T19:29:54.335Z,95743.52
2018-10-09T19:32:23.686Z,95745.80
2018-10-09T19:34:53.270Z,95745.02
2018-10-09T19:37:22.287Z,95754.64
2018-10-09T19:39:52.423Z,95753.42
2018-10-09T19:42:21.355Z,95761.05
2018-10-09T19:44:50.847Z,95765.92
2018-10-09T19:47:19.975Z,95766.81
2018-10-09T19:49:48.940Z,95775.97
2018-10-09T19:52:17.939Z,95764.17
2018-10-09T19:54:47.867Z,95771.81
2018-10-09T19:57:17.147Z,95775.79
2018-10-09T19:59:46.638Z,95773.45
2018-10-09T20:02:15.796Z,95771.03
2018-10-09T20:04:44.762Z,95785.95
2018-10-09T20:07:13.858Z,95779.52
2018-10-09T20:09:43.780Z,95779.05
2018-10-09T20:12:12.868Z,95781.73
2018-10-09T20:14:45.362Z,95777.39
2018-10-09T20:17:18.547Z,95782.72
2018-10-09T20:19:48.178Z,95772.77
2018-10-09T20:22:21.619Z,95778.59
2018-10-09T20:24:51.087Z,95782.28
2018-10-09T20:27:20.762Z,95779.97
2018-10-09T20:29:50.641Z,95788.28
2018-10-09T20:32:20.916Z,95792.67
2018-10-09T20:34:50.107Z,95788.04
2018-10-09T20:37:19.495Z,95792.42
2018-10-09T20:39:49.387Z,95793.32
2018-10-09T20:42:18.611Z,95794.36
2018-10-09T20:44:47.508Z,95795.27
2018-10-09T20:47:21.027Z,95795.52
2018-10-09T20:49:50.223Z,95798.09
2018-10-09T20:52:20.424Z,95806.59
2018-10-09T20:54:50.071Z,95802.72
2018-10-09T20:57:18.833Z,95802.84
2018-10-09T20:59:47.726Z,95809.59
2018-10-09T21:02:16.935Z,95804.51
2018-10-09T21:04:46.124Z,95806.61
2018-10-09T21:07:14.992Z,95807.52
2018-10-09T21:09:44.380Z,95810.39
2018-10-09T21:12:13.419Z,95806.87
2018-10-09T21:14:42.306Z,95804.59
2018-10-09T21:17:11.641Z,95811.28
2018-10-09T21:19:40.594Z,95808.30
2018-10-09T21:22:09.342Z,95811.95
2018-10-09T21:24:38.568Z,95818.27
2018-10-09T21:27:07.611Z,95813.86
2018-10-09T21:29:37.043Z,95812.86
2018-10-09T21:32:06.165Z,95818.16
2018-10-09T21:34:35.600Z,95818.81
2018-10-09T21:37:04.541Z,95813.27
2018-10-09T21:39:33.700Z,95819.70
2018-10-09T21:42:03.160Z,95816.84
2018-10-09T21:47:02.785Z,95824.56
2018-10-09T21:49:32.242Z,95821.63
2018-10-09T21:52:01.109Z,95825.63
2018-10-09T21:54:30.991Z,95826.77
2018-10-09T21:57:00.358Z,95825.28
2018-10-09T21:59:29.419Z,95826.70
2018-10-09T22:01:59.129Z,95821.70
2018-10-09T22:04:27.966Z,95820.08
2018-10-09T22:06:56.919Z,95826.69
2018-10-09T22:09:25.705Z,95821.45
2018-10-09T22:11:54.487Z,95815.54
2018-10-09T22:14:23.855Z,95816.97
2018-10-09T22:16:53.068Z,95819.89
2018-10-09T22:19:22.974Z,95817.34
2018-10-09T22:21:51.963Z,95815.02
2018-10-09T22:24:21.747Z,95809.65
2018-10-09T22:26:50.672Z,95816.13
2018-10-09T22:29:19.943Z,95818.77
2018-10-09T22:31:48.624Z,95812.55
2018-10-09T22:34:18.030Z,95808.35
2018-10-09T22:36:46.735Z,95810.75
2018-10-09T22:39:15.703Z,95810.98
2018-10-09T22:41:45.717Z,95811.02
2018-10-09T22:44:14.669Z,95808.43
2018-10-09T22:46:43.540Z,95808.22
2018-10-09T22:49:13.438Z,95808.39
2018-10-09T22:51:43.215Z,95807.67
2018-10-09T22:54:12.330Z,95811.39
2018-10-09T22:56:41.608Z,95814.95
2018-10-09T22:59:10.477Z,95809.61
2018-10-09T23:01:39.646Z,95817.45
2018-10-09T23:04:08.938Z,95813.16
2018-10-09T23:06:38.620Z,95819.30
2018-10-09T23:09:10.425Z,95815.94
2018-10-09T23:11:39.555Z,95815.34
2018-10-09T23:14:08.558Z,95816.98
2018-10-09T23:16:37.955Z,95817.58
2018-10-09T23:19:06.935Z,95815.30
2018-10-09T23:21:35.967Z,95813.36
2018-10-09T23:24:04.783Z,95811.14
2018-10-09T23:26:34.131Z,95816.37
2018-10-09T23:29:03.259Z,95811.84
2018-10-09T23:31:32.219Z,95817.22
2018-10-09T23:34:01.297Z,95815.45
2018-10-09T23:36:30.335Z,95810.28
2018-10-09T23:38:59.526Z,95815.67
2018-10-09T23:41:28.334Z,95810.44
2018-10-09T23:43:57.266Z,95807.30
2018-10-09T23:46:26.368Z,95810.31
2018-10-09T23:48:55.427Z,95806.03
2018-10-09T23:51:24.515Z,95808.58
2018-10-09T23:53:53.360Z,95801.41
2018-10-09T23:56:22.301Z,95807.41
2018-10-09T23:58:51.439Z,95807.92
